Time;durP1;ratioP1;P1;durP2;ratioP2;P2;SDS_P1;SDS_P2;PMS_P1;PMS_P2;Temp;Humidity;BMP_temperature;BMP_pressure;BME280_temperature;BME280_humidity;BME280_pressure;Samples;Min_cycle;Max_cycle;Signal;HPM_P1;HPM_P2
2021/09/26 00:01:32;;;;;;;7.07;3.53;;;;;;;18.26;76.89;96311.13;4965115;28;20416;-78
2021/09/26 00:03:57;;;;;;;6.55;4.13;;;;;;;18.28;76.92;96319.75;4969773;28;20050;-77
2021/09/26 00:06:23;;;;;;;8.98;3.78;;;;;;;18.26;76.93;96313.78;4985288;28;20045;-79
2021/09/26 00:08:49;;;;;;;7.82;3.90;;;;;;;18.42;76.22;96318.72;4968838;28;20042;-78
2021/09/26 00:11:15;;;;;;;7.18;3.85;;;;;;;18.46;75.95;96311.94;4991183;28;20027;-78
2021/09/26 00:13:42;;;;;;;6.40;3.83;;;;;;;18.47;76.15;96310.09;4960134;28;20022;-78
2021/09/26 00:16:08;;;;;;;5.13;3.50;;;;;;;18.49;76.33;96314.19;4979002;28;20052;-78
2021/09/26 00:18:34;;;;;;;5.45;3.83;;;;;;;18.54;75.96;96310.91;4999486;28;20026;-78
2021/09/26 00:21:00;;;;;;;6.97;3.65;;;;;;;18.49;76.78;96310.72;4995409;28;20025;-78
2021/09/26 00:23:26;;;;;;;6.32;3.78;;;;;;;18.53;76.61;96311.94;4952650;28;20019;-78
2021/09/26 00:25:53;;;;;;;6.10;4.05;;;;;;;18.59;76.61;96309.25;4954429;28;20035;-78
2021/09/26 00:28:20;;;;;;;6.07;4.07;;;;;;;18.48;77.21;96307.22;4982451;28;20027;-78
2021/09/26 00:30:47;;;;;;;7.55;4.05;;;;;;;18.38;78.32;96312.16;4971091;28;20106;-78
2021/09/26 00:33:13;;;;;;;5.90;3.75;;;;;;;18.31;78.24;96317.50;4974437;28;20099;-77
2021/09/26 00:35:39;;;;;;;8.85;3.85;;;;;;;18.24;78.76;96305.19;4975610;28;20419;-78
2021/09/26 00:38:05;;;;;;;7.25;3.70;;;;;;;18.17;79.00;96293.72;4951951;28;20113;-78
2021/09/26 00:40:31;;;;;;;6.70;4.18;;;;;;;18.24;78.48;96300.72;4969027;28;20114;-77
2021/09/26 00:42:56;;;;;;;5.65;3.63;;;;;;;18.24;79.84;96300.72;4953597;28;20023;-77
2021/09/26 00:45:22;;;;;;;6.88;3.30;;;;;;;18.22;78.97;96291.28;4978322;28;20109;-78
2021/09/26 00:47:49;;;;;;;5.43;3.97;;;;;;;18.21;79.27;96284.28;4969366;28;20034;-78
2021/09/26 00:50:16;;;;;;;9.10;3.45;;;;;;;18.30;78.82;96288.41;4970035;28;20034;-78
2021/09/26 00:52:44;;;;;;;8.13;3.78;;;;;;;18.30;78.62;96275.91;4992009;28;20022;-78
2021/09/26 00:55:11;;;;;;;9.27;3.80;;;;;;;18.42;77.66;96277.94;4966538;28;20045;-78
2021/09/26 00:57:37;;;;;;;6.05;3.53;;;;;;;18.51;76.50;96280.19;4962741;28;20044;-77
2021/09/26 01:00:05;;;;;;;6.47;3.78;;;;;;;18.65;74.66;96275.66;4990203;28;20046;-77
2021/09/26 01:02:31;;;;;;;7.68;3.10;;;;;;;18.78;73.24;96285.50;4975233;28;20041;-77
2021/09/26 01:04:58;;;;;;;6.47;3.10;;;;;;;18.91;71.85;96276.63;4973860;28;20035;-78
2021/09/26 01:07:46;;;;;;;8.05;2.95;;;;;;;18.98;71.38;96261.41;4958672;28;20061;-78
2021/09/26 01:10:44;;;;;;;6.35;2.88;;;;;;;19.02;71.30;96265.31;4977565;28;20079;-78
2021/09/26 01:13:26;;;;;;;9.52;2.80;;;;;;;19.04;71.54;96272.03;4973031;28;20569;-78
2021/09/26 01:16:31;;;;;;;6.25;3.10;;;;;;;18.99;72.03;96268.41;4956924;28;20459;-78
2021/09/26 01:19:05;;;;;;;8.90;3.20;;;;;;;18.94;72.37;96268.19;4968545;28;20043;-78
2021/09/26 01:21:47;;;;;;;9.70;3.67;;;;;;;18.93;72.65;96267.38;4977929;28;20461;-78
2021/09/26 01:24:41;;;;;;;8.60;3.50;;;;;;;18.91;73.12;96269.44;4973801;28;20034;-78
2021/09/26 01:27:22;;;;;;;7.85;3.50;;;;;;;18.84;73.69;96263.31;4956066;28;20046;-78
2021/09/26 01:30:31;;;;;;;11.10;3.47;;;;;;;18.82;74.10;96271.53;4989281;28;20710;-78
2021/09/26 01:33:31;;;;;;;9.02;3.55;;;;;;;18.71;75.16;96273.97;4966336;28;20102;-78
2021/09/26 01:36:17;;;;;;;6.30;3.75;;;;;;;18.62;76.05;96286.72;4961187;28;20587;-78
2021/09/26 01:39:02;;;;;;;7.28;3.15;;;;;;;18.59;76.54;96293.28;4991676;28;20035;-78
2021/09/26 01:41:59;;;;;;;9.85;3.75;;;;;;;18.49;77.08;96284.09;4945780;28;20015;-78
2021/09/26 01:44:46;;;;;;;8.20;3.47;;;;;;;18.45;77.52;96297.00;4970542;28;20117;-78
2021/09/26 01:47:16;;;;;;;10.25;4.15;;;;;;;18.32;78.49;96289.84;4950464;28;20038;-78
2021/09/26 01:49:48;;;;;;;8.25;3.60;;;;;;;18.19;79.53;96286.38;4951530;28;20519;-78
2021/09/26 01:52:25;;;;;;;9.57;3.90;;;;;;;18.25;79.18;96283.69;4976419;28;20045;-78
2021/09/26 01:54:51;;;;;;;8.23;4.10;;;;;;;18.13;80.21;96288.00;4972212;28;20084;-78
2021/09/26 01:57:20;;;;;;;8.32;3.97;;;;;;;18.14;79.98;96293.13;4982892;28;20034;-78
2021/09/26 01:59:52;;;;;;;10.63;4.38;;;;;;;18.19;80.21;96289.03;4976128;28;20034;-78
2021/09/26 02:02:24;;;;;;;12.48;4.07;;;;;;;18.12;80.06;96292.50;4942736;28;20031;-78
2021/09/26 02:04:52;;;;;;;7.20;3.72;;;;;;;18.09;80.47;96286.78;4966015;28;20030;-78
2021/09/26 02:07:20;;;;;;;7.00;3.72;;;;;;;18.09;80.53;96287.59;4964442;28;20022;-77
2021/09/26 02:09:47;;;;;;;9.75;3.60;;;;;;;18.04;80.73;96284.75;4975203;28;20042;-78
2021/09/26 02:12:14;;;;;;;7.38;3.78;;;;;;;17.99;81.12;96284.53;4981391;28;20026;-78
2021/09/26 02:14:41;;;;;;;6.15;3.65;;;;;;;17.98;81.37;96288.22;4962865;28;20098;-77
2021/09/26 02:17:09;;;;;;;8.32;3.80;;;;;;;17.93;81.58;96285.31;4993060;28;20037;-78
2021/09/26 02:19:36;;;;;;;6.40;3.45;;;;;;;17.88;81.87;96285.94;4966650;28;20511;-78
2021/09/26 02:22:07;;;;;;;7.60;3.55;;;;;;;17.95;81.64;96285.97;4964894;28;20030;-78
2021/09/26 02:24:34;;;;;;;8.30;3.85;;;;;;;17.97;81.49;96301.69;4971951;28;20035;-78
2021/09/26 02:27:00;;;;;;;10.63;4.20;;;;;;;17.97;81.76;96293.72;4973979;28;20023;-77
2021/09/26 02:29:26;;;;;;;7.82;3.78;;;;;;;17.97;81.70;96291.88;4963411;28;20064;-78
2021/09/26 02:31:52;;;;;;;7.80;3.75;;;;;;;17.92;82.18;96297.00;4977933;28;20067;-78
2021/09/26 02:34:18;;;;;;;8.70;3.85;;;;;;;17.86;82.50;96303.13;4975117;28;20039;-78
2021/09/26 02:36:44;;;;;;;8.60;4.20;;;;;;;17.86;82.38;96303.13;4975684;28;20117;-78
2021/09/26 02:39:16;;;;;;;9.95;4.22;;;;;;;17.84;82.95;96294.53;4992152;28;20041;-78
2021/09/26 02:42:08;;;;;;;6.97;4.13;;;;;;;17.87;82.93;96291.47;4982158;28;20066;-78
2021/09/26 02:44:55;;;;;;;10.43;4.00;;;;;;;17.90;82.84;96299.03;4959744;28;20030;-78
2021/09/26 02:47:28;;;;;;;9.63;3.90;;;;;;;17.78;83.30;96290.84;4972108;28;20034;-78
2021/09/26 02:49:55;;;;;;;10.70;4.32;;;;;;;17.80;83.01;96293.31;4964612;28;20038;-78
2021/09/26 02:52:22;;;;;;;8.77;3.70;;;;;;;17.84;83.52;96286.53;4984810;28;20030;-77
2021/09/26 02:54:48;;;;;;;7.82;3.83;;;;;;;17.81;83.63;96286.97;4967588;28;20027;-77
2021/09/26 02:57:14;;;;;;;8.20;4.15;;;;;;;17.78;84.10;96287.38;4972073;28;20029;-78
2021/09/26 02:59:41;;;;;;;11.52;4.03;;;;;;;17.74;84.33;96291.41;4972576;28;20109;-77
2021/09/26 03:02:07;;;;;;;8.88;4.22;;;;;;;17.72;84.64;96293.47;4977113;28;20491;-77
2021/09/26 03:04:45;;;;;;;7.13;3.85;;;;;;;17.70;84.67;96292.84;4993852;28;20027;-77
2021/09/26 03:07:14;;;;;;;7.28;4.05;;;;;;;17.62;85.49;96285.88;4983843;28;20038;-77
2021/09/26 03:09:40;;;;;;;10.10;4.28;;;;;;;17.57;85.71;96289.16;4981968;28;20034;-77
2021/09/26 03:12:18;;;;;;;9.18;4.25;;;;;;;17.55;86.10;96290.38;4957579;28;20487;-77
2021/09/26 03:14:44;;;;;;;7.70;4.22;;;;;;;17.52;86.30;96293.44;4971174;28;20114;-78
2021/09/26 03:17:10;;;;;;;8.68;4.10;;;;;;;17.53;86.38;96282.59;4976117;28;20076;-77
2021/09/26 03:19:36;;;;;;;10.25;4.18;;;;;;;17.49;86.84;96281.34;4978002;28;20126;-77
2021/09/26 03:22:04;;;;;;;8.13;3.67;;;;;;;17.49;86.80;96278.69;4996554;28;20030;-77
2021/09/26 03:24:30;;;;;;;10.93;5.07;;;;;;;17.37;87.47;96269.66;4990483;28;20114;-77
2021/09/26 03:26:57;;;;;;;8.25;4.15;;;;;;;17.41;87.36;96274.41;4967794;28;20598;-77
2021/09/26 03:29:22;;;;;;;7.50;4.40;;;;;;;17.29;88.46;96265.34;4991253;28;20495;-77
2021/09/26 03:31:48;;;;;;;9.02;4.32;;;;;;;17.26;88.92;96268.41;4980075;28;20029;-77
2021/09/26 03:34:14;;;;;;;10.57;4.75;;;;;;;17.19;89.28;96265.72;4953284;28;20126;-77
2021/09/26 03:36:40;;;;;;;9.70;4.55;;;;;;;17.16;89.73;96274.09;4976562;28;20030;-78
2021/09/26 03:39:06;;;;;;;9.90;4.90;;;;;;;17.23;89.63;96270.66;4984249;28;20064;-77
2021/09/26 03:41:32;;;;;;;11.73;4.72;;;;;;;17.18;89.95;96274.72;4983379;28;20038;-77
2021/09/26 03:43:57;;;;;;;6.82;4.32;;;;;;;17.06;90.60;96265.69;4988339;28;20035;-77
2021/09/26 03:46:23;;;;;;;10.05;5.30;;;;;;;16.98;91.19;96263.22;4994049;28;20040;-77
2021/09/26 03:48:49;;;;;;;9.27;4.95;;;;;;;16.98;91.82;96265.88;5003624;28;20057;-77
2021/09/26 03:51:15;;;;;;;8.10;5.05;;;;;;;16.92;91.96;96254.19;4976781;28;20736;-77
2021/09/26 03:53:41;;;;;;;7.55;4.30;;;;;;;16.94;92.16;96254.00;4981843;28;20069;-77
2021/09/26 03:56:07;;;;;;;9.85;4.78;;;;;;;17.02;91.51;96245.84;4981235;28;20031;-77
2021/09/26 03:58:32;;;;;;;11.07;4.55;;;;;;;16.94;91.75;96254.00;4992052;28;20046;-77
2021/09/26 04:00:58;;;;;;;8.65;4.68;;;;;;;16.92;92.33;96251.53;4965769;28;20037;-77
2021/09/26 04:03:24;;;;;;;9.48;4.63;;;;;;;16.92;92.10;96248.06;4975610;28;20452;-77
2021/09/26 04:05:50;;;;;;;9.93;4.63;;;;;;;16.84;92.84;96261.53;4990165;28;20157;-77
2021/09/26 04:08:16;;;;;;;9.07;5.22;;;;;;;16.83;93.22;96243.94;4989068;28;20133;-77
2021/09/26 04:10:42;;;;;;;8.57;5.07;;;;;;;16.85;92.94;96241.91;4970670;28;20104;-77
2021/09/26 04:13:08;;;;;;;7.20;4.05;;;;;;;16.84;92.73;96238.44;4983543;28;20775;-77
2021/09/26 04:15:35;;;;;;;11.75;6.90;;;;;;;16.87;92.48;96242.53;4980311;28;20031;-77
2021/09/26 04:18:02;;;;;;;9.25;5.13;;;;;;;16.86;92.47;96233.72;4970583;28;20055;-78
2021/09/26 04:20:28;;;;;;;8.18;5.10;;;;;;;16.85;92.79;96241.91;4984890;28;20106;-77
2021/09/26 04:22:54;;;;;;;7.43;4.43;;;;;;;16.76;94.18;96232.47;4973602;28;20510;-78
2021/09/26 04:25:19;;;;;;;9.07;5.57;;;;;;;16.69;94.13;96238.53;4969023;28;20016;-78
2021/09/26 04:27:45;;;;;;;8.25;4.75;;;;;;;16.70;94.30;96245.50;4964546;28;20033;-78
2021/09/26 04:30:11;;;;;;;11.80;5.13;;;;;;;16.68;94.18;96255.50;4976729;28;20122;-78
2021/09/26 04:32:38;;;;;;;8.75;4.95;;;;;;;16.61;94.95;96245.88;4979974;28;20112;-77
2021/09/26 04:35:04;;;;;;;7.97;5.32;;;;;;;16.48;96.06;96243.94;4970421;28;20050;-77
2021/09/26 04:37:30;;;;;;;10.27;5.18;;;;;;;16.42;96.85;96242.88;4986834;28;20514;-77
2021/09/26 04:39:56;;;;;;;8.32;4.80;;;;;;;16.50;97.31;96241.94;4982115;28;20022;-76
2021/09/26 04:42:22;;;;;;;10.38;5.53;;;;;;;16.48;97.30;96241.28;4975003;28;20135;-77
2021/09/26 04:44:48;;;;;;;9.98;5.53;;;;;;;16.48;97.28;96239.47;4967386;28;20027;-77
2021/09/26 04:47:13;;;;;;;9.88;5.55;;;;;;;16.53;97.38;96244.16;4977511;28;20039;-77
2021/09/26 04:49:39;;;;;;;11.35;5.63;;;;;;;16.50;97.50;96245.41;4968453;28;20031;-78
2021/09/26 04:52:05;;;;;;;9.38;5.70;;;;;;;16.53;97.48;96248.66;4968637;28;20432;-77
2021/09/26 04:54:31;;;;;;;9.48;5.18;;;;;;;16.52;97.91;96247.84;4972623;28;20038;-77
2021/09/26 04:56:57;;;;;;;9.55;6.10;;;;;;;16.50;98.02;96255.19;4985695;28;20027;-77
2021/09/26 04:59:24;;;;;;;10.50;5.80;;;;;;;16.46;98.62;96248.63;4992251;28;20037;-77
2021/09/26 05:01:51;;;;;;;9.00;5.32;;;;;;;16.48;98.86;96262.53;4975844;28;20037;-77
2021/09/26 05:04:17;;;;;;;8.98;5.60;;;;;;;16.42;99.27;96255.34;4972454;28;20019;-77
2021/09/26 05:06:43;;;;;;;8.35;5.05;;;;;;;16.38;99.80;96267.38;4973024;28;20030;-78
2021/09/26 05:09:09;;;;;;;8.60;6.07;;;;;;;16.41;99.29;96256.38;4976663;28;20471;-77
2021/09/26 05:11:35;;;;;;;12.27;6.15;;;;;;;16.41;99.20;96251.06;4968307;28;20027;-77
2021/09/26 05:14:01;;;;;;;11.40;5.80;;;;;;;16.33;100.00;96248.53;4985868;28;20162;-77
2021/09/26 05:16:27;;;;;;;10.07;5.70;;;;;;;16.39;99.94;96248.59;4997396;28;20034;-77
2021/09/26 05:18:52;;;;;;;9.38;5.75;;;;;;;16.38;99.65;96248.78;4982193;28;20035;-77
2021/09/26 05:21:18;;;;;;;10.65;6.25;;;;;;;16.43;99.60;96256.97;4968345;28;20030;-77
2021/09/26 05:23:44;;;;;;;8.60;5.78;;;;;;;16.38;100.00;96257.56;4964680;28;20031;-78
2021/09/26 05:26:10;;;;;;;8.93;5.32;;;;;;;16.54;98.86;96245.00;4976028;28;20381;-78
2021/09/26 05:28:35;;;;;;;10.27;5.70;;;;;;;16.47;99.19;96256.41;4972250;28;20019;-77
2021/09/26 05:31:02;;;;;;;10.05;5.65;;;;;;;16.46;99.41;96261.91;4981699;28;20645;-77
2021/09/26 05:33:31;;;;;;;7.80;5.40;;;;;;;16.45;99.47;96255.78;4973261;28;20473;-77
2021/09/26 05:35:57;;;;;;;13.23;6.25;;;;;;;16.48;99.41;96262.53;4966664;28;20033;-78
2021/09/26 05:38:23;;;;;;;8.32;6.03;;;;;;;16.53;99.13;96269.91;4992387;28;20018;-78
2021/09/26 05:40:49;;;;;;;9.60;5.75;;;;;;;16.44;99.63;96262.09;4983057;28;20078;-77
2021/09/26 05:43:14;;;;;;;8.52;5.22;;;;;;;16.47;99.29;96252.94;4977282;28;20089;-78
2021/09/26 05:45:40;;;;;;;8.60;5.57;;;;;;;16.50;99.29;96255.19;4989037;28;20434;-77
2021/09/26 05:48:06;;;;;;;10.57;5.97;;;;;;;16.49;99.40;96257.00;4976596;28;20134;-78
2021/09/26 05:50:32;;;;;;;10.00;6.20;;;;;;;16.57;99.14;96258.72;4976138;28;20500;-77
2021/09/26 05:52:58;;;;;;;9.60;6.47;;;;;;;16.53;99.30;96272.56;5000407;28;20029;-78
2021/09/26 05:55:24;;;;;;;11.63;5.85;;;;;;;16.41;100.00;96270.47;4976242;28;20108;-78
2021/09/26 05:57:50;;;;;;;8.40;5.85;;;;;;;16.37;100.00;96265.75;4973167;28;20038;-78
2021/09/26 06:00:17;;;;;;;9.88;5.90;;;;;;;16.40;100.00;96260.84;4963184;28;20035;-78
2021/09/26 06:02:44;;;;;;;9.93;6.38;;;;;;;16.46;100.00;96275.16;4979050;28;20045;-78
2021/09/26 06:05:11;;;;;;;11.40;6.35;;;;;;;16.42;100.00;96273.91;4972759;28;20031;-78
2021/09/26 06:07:37;;;;;;;8.85;6.30;;;;;;;16.38;100.00;96272.69;4987697;28;20480;-78
2021/09/26 06:10:04;;;;;;;11.43;6.20;;;;;;;16.35;100.00;96273.88;4991426;28;20062;-78
2021/09/26 06:12:31;;;;;;;9.38;5.97;;;;;;;16.41;100.00;96267.78;4973587;28;20019;-78
2021/09/26 06:14:57;;;;;;;10.13;6.07;;;;;;;16.40;100.00;96273.31;4967960;28;20037;-78
2021/09/26 06:17:23;;;;;;;9.88;6.60;;;;;;;16.31;100.00;96274.47;4981821;28;20029;-77
2021/09/26 06:19:52;;;;;;;13.13;6.70;;;;;;;16.27;100.00;96282.00;4982400;28;20035;-78
2021/09/26 06:22:19;;;;;;;15.88;6.53;;;;;;;16.27;100.00;96279.34;4976540;28;20033;-78
2021/09/26 06:24:45;;;;;;;10.27;6.72;;;;;;;16.36;100.00;96277.34;5004601;28;20048;-78
2021/09/26 06:27:12;;;;;;;11.43;6.40;;;;;;;16.34;100.00;96282.88;4976932;28;20104;-78
2021/09/26 06:29:38;;;;;;;11.95;6.53;;;;;;;16.43;100.00;96286.16;4983287;28;20042;-77
2021/09/26 06:32:04;;;;;;;10.30;6.05;;;;;;;16.33;100.00;96286.53;4982581;28;20100;-78
2021/09/26 06:34:30;;;;;;;12.43;6.45;;;;;;;16.41;100.00;96290.88;4969115;28;20608;-78
2021/09/26 06:36:57;;;;;;;16.40;6.50;;;;;;;16.64;100.00;96278.16;4961181;28;20023;-78
2021/09/26 06:39:24;;;;;;;9.60;6.18;;;;;;;17.09;98.51;96275.91;4973856;28;20050;-78
2021/09/26 06:41:50;;;;;;;12.35;6.22;;;;;;;17.45;96.69;96274.81;4968081;28;20101;-77
2021/09/26 06:44:16;;;;;;;11.07;6.07;;;;;;;17.75;94.86;96274.44;4994732;28;20074;-78
2021/09/26 06:46:42;;;;;;;8.88;5.93;;;;;;;18.02;92.44;96272.66;4982763;28;20030;-78
2021/09/26 06:49:07;;;;;;;9.52;6.38;;;;;;;18.28;90.29;96277.16;4988038;28;20431;-77
2021/09/26 06:51:33;;;;;;;9.10;6.05;;;;;;;18.15;91.31;96280.63;4979264;28;20039;-77
2021/09/26 06:54:00;;;;;;;10.13;5.53;;;;;;;18.48;90.14;96285.13;4972508;28;20034;-78
2021/09/26 06:56:25;;;;;;;12.15;7.28;;;;;;;18.65;89.03;96290.81;4985396;28;20034;-78
2021/09/26 06:58:51;;;;;;;8.40;6.38;;;;;;;18.70;89.00;96278.50;4997134;28;20038;-78
2021/09/26 07:01:17;;;;;;;10.60;6.50;;;;;;;18.53;89.94;96288.78;4995959;28;20034;-78
2021/09/26 07:03:42;;;;;;;13.82;6.70;;;;;;;19.28;86.86;96283.00;4978066;28;20031;-77
2021/09/26 07:06:08;;;;;;;10.90;6.93;;;;;;;19.29;85.39;96277.50;4998920;28;20039;-77
2021/09/26 07:08:34;;;;;;;8.82;6.18;;;;;;;19.24;86.21;96282.63;4982893;28;20038;-79
2021/09/26 07:10:59;;;;;;;14.43;6.28;;;;;;;19.53;85.28;96275.09;4982943;28;20026;-78
2021/09/26 07:13:25;;;;;;;10.50;6.47;;;;;;;19.49;85.21;96271.22;4963687;28;20037;-78
2021/09/26 07:15:51;;;;;;;16.23;7.40;;;;;;;19.64;84.18;96278.97;4979616;28;20029;-77
2021/09/26 07:18:17;;;;;;;9.45;5.85;;;;;;;19.60;85.20;96277.72;4970893;28;20043;-78
2021/09/26 07:20:42;;;;;;;9.70;6.20;;;;;;;19.51;85.24;96280.63;4978232;28;20058;-78
2021/09/26 07:23:08;;;;;;;13.25;5.90;;;;;;;20.27;81.19;96278.91;4978644;28;20049;-78
2021/09/26 07:25:34;;;;;;;11.45;6.90;;;;;;;20.51;80.82;96269.25;4995781;28;20120;-79
2021/09/26 07:28:01;;;;;;;12.50;7.63;;;;;;;20.40;80.13;96278.78;4982958;28;20054;-78
2021/09/26 07:30:26;;;;;;;10.95;6.88;;;;;;;20.36;80.75;96282.13;4964972;28;20399;-78
2021/09/26 07:32:52;;;;;;;10.18;6.55;;;;;;;20.23;80.37;96280.38;4967871;28;20038;-78
2021/09/26 07:35:18;;;;;;;11.40;6.80;;;;;;;20.48;79.54;96286.50;4971669;28;20042;-78
2021/09/26 07:37:44;;;;;;;10.95;6.65;;;;;;;20.87;78.67;96283.69;4965802;28;20163;-79
2021/09/26 07:40:10;;;;;;;11.15;6.05;;;;;;;21.63;73.26;96285.84;4967362;28;20027;-78
2021/09/26 07:42:37;;;;;;;9.75;6.78;;;;;;;22.24;71.77;96294.63;4968160;28;20031;-79
2021/09/26 07:45:06;;;;;;;11.88;6.68;;;;;;;22.52;70.02;96291.25;4996437;28;20093;-79
2021/09/26 07:47:33;;;;;;;10.43;6.80;;;;;;;22.79;68.19;96298.81;4964685;28;20058;-79
2021/09/26 07:50:00;;;;;;;9.43;6.38;;;;;;;22.37;70.87;96296.25;4981920;28;20027;-80
2021/09/26 07:52:27;;;;;;;10.43;6.50;;;;;;;21.87;72.78;96305.44;4984617;28;20507;-78
2021/09/26 07:54:55;;;;;;;9.20;5.97;;;;;;;23.01;68.14;96304.41;4966284;28;20027;-80
2021/09/26 07:57:22;;;;;;;9.52;6.00;;;;;;;23.81;65.15;96302.75;4959286;28;20035;-79
2021/09/26 07:59:49;;;;;;;11.88;5.60;;;;;;;23.66;65.99;96304.09;4961785;28;20031;-80
2021/09/26 08:02:15;;;;;;;10.18;5.60;;;;;;;23.02;67.59;96308.72;4976929;28;20369;-79
2021/09/26 08:04:41;;;;;;;9.95;5.72;;;;;;;24.26;63.45;96293.88;4974308;28;20101;-79
2021/09/26 08:07:07;;;;;;;9.90;6.43;;;;;;;24.51;62.16;96286.22;4955926;28;20485;-78
2021/09/26 08:09:33;;;;;;;9.05;5.30;;;;;;;24.73;61.59;96288.97;4961564;28;20078;-80
2021/09/26 08:11:59;;;;;;;7.78;5.22;;;;;;;25.34;58.76;96288.97;4973683;28;20417;-78
2021/09/26 08:14:25;;;;;;;9.82;4.80;;;;;;;25.15;58.96;96305.44;4966616;28;20059;-78
2021/09/26 08:16:51;;;;;;;10.35;5.43;;;;;;;25.46;58.20;96303.13;4991504;28;20034;-80
2021/09/26 08:19:16;;;;;;;8.13;5.05;;;;;;;25.54;57.35;96313.44;4986176;28;20024;-80
2021/09/26 08:21:42;;;;;;;8.38;5.35;;;;;;;25.52;57.89;96325.50;4975029;28;20074;-79
2021/09/26 08:24:08;;;;;;;7.13;5.30;;;;;;;25.99;55.45;96322.25;4988618;28;20031;-80
2021/09/26 08:26:37;;;;;;;9.32;5.40;;;;;;;26.03;56.62;96329.59;4945051;28;20049;-79
2021/09/26 08:29:02;;;;;;;8.13;5.40;;;;;;;26.06;56.14;96321.00;4969065;28;20027;-80
2021/09/26 08:31:28;;;;;;;9.23;5.43;;;;;;;26.79;54.44;96326.75;4996697;28;20069;-80
2021/09/26 08:33:54;;;;;;;10.00;5.50;;;;;;;26.55;54.45;96334.38;4967519;28;20106;-80
2021/09/26 08:36:20;;;;;;;9.63;5.28;;;;;;;26.06;55.03;96334.50;4976825;28;20061;-80
2021/09/26 08:38:46;;;;;;;11.88;5.72;;;;;;;27.18;52.97;96336.44;4963624;28;20019;-80
2021/09/26 08:41:13;;;;;;;7.82;5.10;;;;;;;27.88;50.81;96335.09;4995943;28;20066;-80
2021/09/26 08:43:39;;;;;;;8.10;5.35;;;;;;;27.39;52.05;96343.53;4980890;28;20101;-78
2021/09/26 08:46:06;;;;;;;7.78;4.97;;;;;;;27.84;50.90;96342.13;4997785;28;20042;-79
2021/09/26 08:48:33;;;;;;;10.95;5.65;;;;;;;27.00;52.35;96337.66;4975122;28;20026;-76
2021/09/26 08:50:58;;;;;;;9.05;5.20;;;;;;;28.02;50.34;96337.28;4987856;28;20039;-79
2021/09/26 08:53:25;;;;;;;9.20;5.07;;;;;;;27.21;51.28;96338.63;4969797;28;20029;-79
2021/09/26 08:55:55;;;;;;;7.32;5.30;;;;;;;27.31;50.90;96349.47;4960620;28;20031;-79
2021/09/26 08:58:22;;;;;;;11.27;5.20;;;;;;;28.39;47.71;96346.00;4970609;28;20127;-80
2021/09/26 09:00:48;;;;;;;10.35;5.13;;;;;;;28.83;48.25;96339.22;5013265;28;20034;-79
2021/09/26 09:03:15;;;;;;;7.95;4.72;;;;;;;29.29;48.65;96345.38;4958349;28;20023;-80
2021/09/26 09:05:43;;;;;;;8.20;5.15;;;;;;;29.63;47.74;96354.78;4974485;28;20038;-79
2021/09/26 09:08:12;;;;;;;9.02;4.97;;;;;;;30.01;46.19;96350.50;4999203;28;20092;-79
2021/09/26 09:10:56;;;;;;;9.95;5.18;;;;;;;28.92;46.86;96355.75;4976945;28;20042;-79
2021/09/26 09:13:31;;;;;;;11.45;4.50;;;;;;;27.55;50.42;96376.84;4977846;28;20080;-80
2021/09/26 09:15:59;;;;;;;10.10;4.57;;;;;;;27.20;52.23;96375.59;5008513;28;20039;-80
2021/09/26 09:18:34;;;;;;;9.27;4.68;;;;;;;26.61;52.72;96375.69;4972993;28;20634;-79
2021/09/26 09:21:13;;;;;;;8.38;4.07;;;;;;;25.62;55.76;96387.59;4992436;28;20121;-80
2021/09/26 09:23:39;;;;;;;11.10;4.38;;;;;;;25.00;57.05;96387.81;4994489;28;20035;-80
2021/09/26 09:26:04;;;;;;;9.00;4.45;;;;;;;24.83;57.59;96391.31;4976959;28;20092;-79
2021/09/26 09:28:31;;;;;;;8.73;5.07;;;;;;;24.92;58.08;96400.59;4994618;28;20045;-78
2021/09/26 09:31:03;;;;;;;9.93;4.38;;;;;;;24.90;59.65;96404.59;4995431;28;21223;-80
2021/09/26 09:33:37;;;;;;;;;;;;;;;24.86;60.00;96417.72;4965243;28;20030;-78
2021/09/26 09:36:02;;;;;;;;;;;;;;;24.58;61.07;96421.31;4980267;28;19922;-79
2021/09/26 09:38:28;;;;;;;9.88;5.45;;;;;;;23.87;63.49;96425.34;4981853;28;19913;-79
2021/09/26 09:40:55;;;;;;;11.18;4.80;;;;;;;24.26;61.79;96418.31;4982641;28;20401;-79
2021/09/26 09:43:22;;;;;;;12.82;4.72;;;;;;;23.87;62.79;96419.97;4959859;28;20540;-80
2021/09/26 09:45:54;;;;;;;8.23;4.82;;;;;;;23.54;63.94;96432.19;4974745;28;20045;-79
2021/09/26 09:48:29;;;;;;;10.30;4.75;;;;;;;23.19;63.50;96434.91;4974739;28;20034;-78
2021/09/26 09:50:57;;;;;;;15.93;4.82;;;;;;;23.01;65.21;96441.19;4982297;28;20124;-79
2021/09/26 09:53:31;;;;;;;12.45;4.57;;;;;;;22.91;65.38;96433.69;4963979;28;20046;-79
2021/09/26 09:56:17;;;;;;;10.25;4.10;;;;;;;23.49;64.79;96432.06;4986232;28;20045;-78
2021/09/26 09:58:55;;;;;;;12.07;4.75;;;;;;;23.34;63.97;96426.34;4974538;28;20106;-79
2021/09/26 10:01:26;;;;;;;10.52;5.55;;;;;;;22.91;65.39;96430.22;4963077;28;20037;-79
2021/09/26 10:03:55;;;;;;;10.25;4.85;;;;;;;23.53;64.24;96430.53;4978857;28;20073;-79
2021/09/26 10:06:32;;;;;;;8.98;5.10;;;;;;;23.40;64.77;96425.41;5011450;28;20029;-79
2021/09/26 10:09:00;;;;;;;8.52;4.82;;;;;;;23.18;65.74;96423.34;5005509;28;20062;-79
2021/09/26 10:11:27;;;;;;;8.07;4.65;;;;;;;23.13;65.58;96420.53;4981489;28;20058;-79
2021/09/26 10:13:55;;;;;;;9.25;4.88;;;;;;;22.88;65.69;96425.31;4978380;28;20039;-79
2021/09/26 10:16:21;;;;;;;11.13;5.28;;;;;;;23.09;65.98;96435.47;4981686;28;20026;-80
2021/09/26 10:18:47;;;;;;;12.32;5.43;;;;;;;22.87;66.44;96432.53;4990978;28;20031;-79
2021/09/26 10:21:13;;;;;;;10.75;5.32;;;;;;;22.51;67.23;96430.84;4990285;28;20039;-79
2021/09/26 10:23:44;;;;;;;9.30;5.65;;;;;;;22.17;68.58;96438.56;4999842;28;20031;-79
2021/09/26 10:26:11;;;;;;;10.55;5.25;;;;;;;21.91;70.41;96441.56;4995309;28;20061;-79
2021/09/26 10:28:37;;;;;;;12.55;6.25;;;;;;;21.88;70.69;96440.94;4976668;28;20022;-79
2021/09/26 10:31:05;;;;;;;11.88;5.78;;;;;;;21.71;71.28;96439.94;4959297;28;20043;-80
2021/09/26 10:33:32;;;;;;;10.18;5.72;;;;;;;21.39;69.23;96448.13;4956370;28;20023;-78
2021/09/26 10:36:00;;;;;;;11.68;6.20;;;;;;;21.32;68.31;96444.66;4974245;28;20038;-78
2021/09/26 10:38:27;;;;;;;10.43;5.95;;;;;;;21.04;69.02;96444.31;4967921;28;20074;-79
2021/09/26 10:40:53;;;;;;;9.15;5.63;;;;;;;21.03;69.63;96454.22;4963383;28;20050;-79
2021/09/26 10:43:29;;;;;;;9.63;6.38;;;;;;;21.44;68.54;96443.97;4981344;28;20046;-78
2021/09/26 10:46:16;;;;;;;8.23;5.80;;;;;;;21.39;68.06;96444.59;4969445;28;20031;-79
2021/09/26 10:49:04;;;;;;;9.48;6.25;;;;;;;21.36;67.66;96459.25;4997560;28;20486;-79
2021/09/26 10:51:40;;;;;;;6.78;5.15;;;;;;;21.16;67.80;96458.63;4962096;28;20030;-79
2021/09/26 10:54:21;;;;;;;7.50;5.80;;;;;;;21.08;67.52;96457.03;4989309;28;20547;-79
2021/09/26 10:56:51;;;;;;;7.93;5.90;;;;;;;20.77;68.00;96457.09;4978445;28;20094;-79
2021/09/26 10:59:19;;;;;;;7.95;5.70;;;;;;;21.04;67.65;96457.69;4984208;28;20032;-79
2021/09/26 11:01:45;;;;;;;9.73;6.65;;;;;;;20.83;66.81;96446.34;4981230;28;20034;-78
2021/09/26 11:04:12;;;;;;;8.18;6.20;;;;;;;21.17;67.00;96450.34;4970922;28;20039;-78
2021/09/26 11:06:38;;;;;;;10.98;7.53;;;;;;;21.13;66.53;96449.16;4968839;28;20063;-78
2021/09/26 11:09:09;;;;;;;8.63;6.68;;;;;;;21.25;66.12;96446.56;4976255;28;20035;-78
2021/09/26 11:11:47;;;;;;;9.82;6.95;;;;;;;21.39;66.25;96442.78;4967813;28;20077;-78
2021/09/26 11:14:14;;;;;;;12.27;8.25;;;;;;;21.79;65.24;96436.13;4982758;28;20035;-78
2021/09/26 11:16:54;;;;;;;8.88;6.45;;;;;;;21.62;66.61;96435.91;4981880;28;20027;-79
2021/09/26 11:19:21;;;;;;;11.00;8.27;;;;;;;21.88;65.68;96432.91;4983895;28;20066;-79
2021/09/26 11:21:59;;;;;;;9.32;7.25;;;;;;;21.65;67.64;96425.56;4989658;28;20035;-79
2021/09/26 11:24:31;;;;;;;12.13;8.25;;;;;;;21.70;67.50;96421.44;4990176;28;20038;-79
2021/09/26 11:26:57;;;;;;;9.55;7.32;;;;;;;21.43;67.91;96424.41;4960260;28;20114;-79
2021/09/26 11:29:27;;;;;;;11.13;6.63;;;;;;;21.63;68.21;96411.63;4977737;28;20498;-79
2021/09/26 11:31:54;;;;;;;8.52;6.30;;;;;;;21.54;66.54;96404.94;4976852;28;20125;-79
2021/09/26 11:34:44;;;;;;;7.03;5.85;;;;;;;21.46;67.60;96391.03;4987853;28;20113;-79
2021/09/26 11:37:12;;;;;;;9.73;6.53;;;;;;;22.27;65.16;96392.47;4975833;28;20296;-78
2021/09/26 11:39:39;;;;;;;9.02;6.07;;;;;;;21.80;65.42;96379.69;4970007;28;20031;-78